createdAt,value
2022-10-28T00:01:12.148Z,-28.3
2022-10-28T00:03:13.468Z,-28.2
2022-10-28T00:05:14.851Z,-28.3
2022-10-28T00:09:17.397Z,-28.1
2022-10-28T00:11:18.451Z,-28
2022-10-28T00:13:20.279Z,-28.2
2022-10-28T00:15:21.567Z,-28.2
2022-10-28T00:19:23.786Z,-28.2
2022-10-28T00:21:24.859Z,-27.9
2022-10-28T00:23:26.584Z,-27.9
2022-10-28T00:25:28.282Z,-28.3
2022-10-28T00:27:30.194Z,-28.3
2022-10-28T00:29:31.550Z,-28.2
2022-10-28T00:31:33.000Z,-28
2022-10-28T00:33:34.122Z,-28.2
2022-10-28T00:35:35.251Z,-28.2
2022-10-28T00:37:36.625Z,-28.3
2022-10-28T00:39:37.709Z,-27.9
2022-10-28T00:41:38.935Z,-28.2
2022-10-28T00:43:39.987Z,-28.2
2022-10-28T00:45:41.588Z,-28.2
2022-10-28T00:47:43.206Z,-28.4
2022-10-28T00:49:45.115Z,-28.1
2022-10-28T00:51:46.742Z,-28.3
2022-10-28T00:53:48.625Z,-28.3
2022-10-28T00:55:50.500Z,-28.2
2022-10-28T00:57:52.516Z,-28.3
2022-10-28T00:59:53.249Z,-28.2
2022-10-28T01:01:54.724Z,-28.5
2022-10-28T01:03:55.746Z,-28.3
2022-10-28T01:05:57.572Z,-28.2
2022-10-28T01:07:59.388Z,-28
2022-10-28T01:10:00.667Z,-28.3
2022-10-28T01:12:02.430Z,-27.9
2022-10-28T01:14:04.206Z,-27.9
2022-10-28T01:16:05.923Z,-27.8
2022-10-28T01:18:06.861Z,-28.4
2022-10-28T01:20:07.863Z,-28.2
2022-10-28T01:22:09.171Z,-28.3
2022-10-28T01:24:10.541Z,-28.2
2022-10-28T01:26:12.428Z,-28.2
2022-10-28T01:30:15.963Z,-28.1
2022-10-28T01:32:17.597Z,-28.2
2022-10-28T01:34:18.636Z,-28.4
2022-10-28T01:36:19.690Z,-27.9
2022-10-28T01:38:20.925Z,-28.2
2022-10-28T01:40:22.451Z,-28.3
2022-10-28T01:42:23.985Z,-28
2022-10-28T01:44:25.555Z,-28.3
2022-10-28T01:46:27.459Z,-28.1
2022-10-28T01:52:32.391Z,-27.9
2022-10-28T01:54:34.255Z,-28.3
2022-10-28T01:56:35.463Z,-28.2
2022-10-28T01:58:36.994Z,-28.2
2022-10-28T02:00:38.126Z,-28.2
2022-10-28T02:02:39.566Z,-28.2
2022-10-28T02:04:41.309Z,-28.3
2022-10-28T02:06:42.274Z,-28.3
2022-10-28T02:08:44.080Z,-28.2
2022-10-28T02:12:47.490Z,-28
2022-10-28T02:14:49.380Z,-28.2
2022-10-28T02:16:50.797Z,-28.2
2022-10-28T02:18:52.684Z,-28.3
2022-10-28T02:20:53.725Z,-27.9
2022-10-28T02:22:54.662Z,-28.3
2022-10-28T02:24:55.691Z,-28.2
2022-10-28T02:26:56.636Z,-28
2022-10-28T02:28:57.625Z,-28.2
2022-10-28T02:35:02.781Z,-27.9
2022-10-28T02:37:04.521Z,-28.2
2022-10-28T02:39:06.013Z,-28
2022-10-28T02:41:07.086Z,-28.1
2022-10-28T02:43:08.154Z,-28.2
2022-10-28T02:45:09.613Z,-28.3
2022-10-28T02:49:13.280Z,-28.2
2022-10-28T02:51:14.506Z,-28.3
2022-10-28T02:53:16.258Z,-28.4
2022-10-28T02:55:17.886Z,-28.3
2022-10-28T03:01:22.339Z,-28
2022-10-28T03:03:23.761Z,-28.4
2022-10-28T03:05:24.979Z,-28.2
2022-10-28T03:07:26.279Z,-28
2022-10-28T03:09:27.962Z,-28.2
2022-10-28T03:11:29.534Z,-28
2022-10-28T03:13:31.472Z,-28.2
2022-10-28T03:15:32.933Z,-28.4
2022-10-28T03:17:33.961Z,-28.2
2022-10-28T03:21:37.036Z,-28.4
2022-10-28T03:23:38.056Z,-27.9
2022-10-28T03:25:39.293Z,-28.3
2022-10-28T03:27:40.363Z,-28.3
2022-10-28T03:33:44.592Z,-28.4
2022-10-28T03:35:45.698Z,-28
2022-10-28T03:37:47.633Z,-28.4
2022-10-28T03:39:49.030Z,-28
2022-10-28T03:41:50.401Z,-28.1
2022-10-28T03:43:52.147Z,-27.8
2022-10-28T03:45:53.357Z,-28.1
2022-10-28T03:47:55.054Z,-28.3
2022-10-28T03:49:56.176Z,-28.3
2022-10-28T03:51:57.785Z,-28.3
2022-10-28T03:53:59.131Z,-27.9
2022-10-28T03:58:01.255Z,-27.9
2022-10-28T04:00:02.266Z,-28.4
2022-10-28T04:02:03.864Z,-28.4
2022-10-28T04:04:04.671Z,-28.3
2022-10-28T04:06:06.033Z,-28
2022-10-28T04:08:07.614Z,-28.1
2022-10-28T04:10:09.115Z,-28
2022-10-28T04:12:10.789Z,-28.2
2022-10-28T04:16:13.526Z,-28.1
2022-10-28T04:20:15.824Z,-28.2
2022-10-28T04:22:17.679Z,-28.2
2022-10-28T04:24:19.354Z,-28.1
2022-10-28T04:26:21.201Z,-28.2
2022-10-28T04:30:24.472Z,-28.4
2022-10-28T04:32:25.907Z,-28.1
2022-10-28T04:34:27.204Z,-28.2
2022-10-28T04:36:28.639Z,-28.2
2022-10-28T04:38:30.355Z,-28
2022-10-28T04:40:31.824Z,-28.4
2022-10-28T04:42:32.807Z,-28.3
2022-10-28T04:43:16.663Z,-28.2
2022-10-28T04:47:19.845Z,-28.1
2022-10-28T04:49:20.933Z,-28
2022-10-28T04:51:22.339Z,-28.2
2022-10-28T04:53:23.880Z,-28.3
2022-10-28T04:55:25.053Z,-28.2
2022-10-28T04:57:26.172Z,-28.3
2022-10-28T04:59:27.863Z,-28
2022-10-28T05:01:29.274Z,-28.2
2022-10-28T05:03:30.086Z,-28
2022-10-28T05:05:31.978Z,-28.1
2022-10-28T05:07:33.535Z,-28
2022-10-28T05:09:35.050Z,-28.3
2022-10-28T05:11:36.373Z,-28.2
2022-10-28T05:13:37.629Z,-28.3
2022-10-28T05:15:39.169Z,-28.3
2022-10-28T05:17:40.744Z,-28.1
2022-10-28T05:19:42.296Z,-28.1
2022-10-28T05:25:46.507Z,-27.9
2022-10-28T05:27:48.115Z,-28.2
2022-10-28T05:29:49.849Z,-28.4
2022-10-28T05:31:51.713Z,-28.3
2022-10-28T05:33:52.766Z,-28.7
2022-10-28T05:35:54.471Z,-28.3
2022-10-28T05:37:55.711Z,-28.2
2022-10-28T05:39:57.255Z,-28.2
2022-10-28T05:41:58.999Z,-28.3
2022-10-28T05:46:02.214Z,-28.2
2022-10-28T05:48:03.206Z,-28.1
2022-10-28T05:50:04.829Z,-28.2
2022-10-28T05:52:06.042Z,-28
2022-10-28T05:56:08.558Z,-28.2
2022-10-28T05:58:10.356Z,-28.2
2022-10-28T06:00:11.515Z,-27.9
2022-10-28T06:02:12.758Z,-28
2022-10-28T06:06:14.736Z,-28.3
2022-10-28T06:08:15.908Z,-28
2022-10-28T06:10:16.907Z,-28.2
2022-10-28T06:12:16.713Z,-28.1
2022-10-28T06:14:18.577Z,-28.3
2022-10-28T06:16:19.700Z,-28.3
2022-10-28T06:18:21.126Z,-28
2022-10-28T06:20:22.702Z,-28.3
2022-10-28T06:22:24.022Z,-28.1
2022-10-28T06:24:25.281Z,-28.2
2022-10-28T06:26:26.467Z,-27.9
2022-10-28T06:28:27.782Z,-28.1
2022-10-28T06:30:29.560Z,-28.1
2022-10-28T06:32:30.684Z,-28.2
2022-10-28T06:34:31.657Z,-28.3
2022-10-28T06:38:34.069Z,-28.2
2022-10-28T06:40:35.640Z,-28.2
2022-10-28T06:42:37.225Z,-28.2
2022-10-28T06:44:38.799Z,-28.1
2022-10-28T06:50:44.566Z,-28.3
2022-10-28T06:54:47.008Z,-28.3
2022-10-28T06:56:48.587Z,-28.2
2022-10-28T06:58:49.726Z,-28.2
2022-10-28T07:00:51.237Z,-27.9
2022-10-28T07:02:53.074Z,-28.2
2022-10-28T07:04:54.315Z,-28.2
2022-10-28T07:06:55.267Z,-28.3
2022-10-28T07:08:57.145Z,-24
2022-10-28T07:10:58.853Z,-22.9
2022-10-28T07:13:00.515Z,-22.6
2022-10-28T07:15:02.291Z,-22.1
2022-10-28T07:17:04.085Z,-23.7
2022-10-28T07:19:05.340Z,-23.7
2022-10-28T07:21:07.172Z,-24
2022-10-28T07:23:08.279Z,-24.5
2022-10-28T07:25:09.919Z,-24.9
2022-10-28T07:27:11.199Z,-24.9
2022-10-28T07:29:12.603Z,-23.6
2022-10-28T07:33:15.939Z,-23.8
2022-10-28T07:35:16.902Z,-16.9
2022-10-28T07:37:18.594Z,-11.3
2022-10-28T07:39:19.765Z,-7.9
2022-10-28T07:41:21.384Z,-3
2022-10-28T07:43:22.576Z,6.5
2022-10-28T07:45:24.405Z,12.1
2022-10-28T07:47:25.809Z,21.2
2022-10-28T07:49:27.541Z,19.9
2022-10-28T07:51:28.698Z,31.4
2022-10-28T07:53:30.180Z,35.09
2022-10-28T07:55:31.278Z,34.4
2022-10-28T07:57:32.542Z,82.3
2022-10-28T07:59:33.434Z,82.5
2022-10-28T08:03:38.775Z,82.1
2022-10-28T08:05:37.239Z,81.9
2022-10-28T08:07:39.132Z,81.4
2022-10-28T08:09:40.617Z,81.3
2022-10-28T08:15:44.759Z,20.5
2022-10-28T08:17:46.538Z,37.5
2022-10-28T08:19:48.008Z,19.2
2022-10-28T08:21:49.152Z,80
2022-10-28T08:25:51.702Z,78.69
2022-10-28T08:27:52.882Z,78.4
2022-10-28T08:29:54.366Z,77.6
2022-10-28T08:31:56.208Z,77.1
2022-10-28T08:33:57.929Z,76.5
2022-10-28T08:35:59.326Z,75.9
2022-10-28T08:38:00.973Z,75.3
2022-10-28T08:40:01.863Z,74.69
2022-10-28T08:42:02.983Z,74
2022-10-28T08:46:06.362Z,73.1
2022-10-28T08:48:08.236Z,73.19
2022-10-28T08:50:09.617Z,73.1
2022-10-28T08:52:11.173Z,2.5
2022-10-28T08:54:12.113Z,-4.3
2022-10-28T08:56:13.745Z,-3.5
2022-10-28T08:58:14.612Z,-5.3
2022-10-28T09:02:17.651Z,-3.9
2022-10-28T09:04:19.201Z,-7.5
2022-10-28T09:06:20.402Z,-6.4
2022-10-28T09:08:22.060Z,-8.3
2022-10-28T09:14:25.454Z,-9.1
2022-10-28T09:16:27.103Z,-5.1
2022-10-28T09:18:28.828Z,-3.1
2022-10-28T09:20:30.585Z,-1.8
2022-10-28T09:22:32.278Z,-1
2022-10-28T09:24:33.563Z,71.8
2022-10-28T09:26:35.144Z,-4.1
2022-10-28T09:28:36.326Z,-7
2022-10-28T09:30:37.854Z,-5.3
2022-10-28T09:32:38.956Z,0.7
2022-10-28T09:34:40.494Z,12.5
2022-10-28T09:36:41.356Z,29.9
2022-10-28T09:38:42.487Z,24.2
2022-10-28T09:40:43.426Z,69.9
2022-10-28T09:42:44.323Z,67.8
2022-10-28T09:44:45.550Z,67.69
2022-10-28T09:46:46.805Z,66.9
2022-10-28T09:48:47.864Z,65.69
2022-10-28T09:50:49.333Z,65
2022-10-28T09:52:50.914Z,64
2022-10-28T09:54:52.196Z,63.1
2022-10-28T09:56:53.030Z,62.3
2022-10-28T09:58:54.411Z,60.6
2022-10-28T10:00:55.689Z,60
2022-10-28T10:02:57.060Z,59.1
2022-10-28T10:04:58.216Z,57
2022-10-28T10:06:59.751Z,55.5
2022-10-28T10:11:02.519Z,53.4
2022-10-28T10:13:03.797Z,50.8
2022-10-28T10:15:04.987Z,49.2
2022-10-28T10:17:06.388Z,48.3
2022-10-28T10:21:09.266Z,45.1
2022-10-28T10:23:10.741Z,43.8
2022-10-28T10:25:12.146Z,42.5
2022-10-28T10:27:13.768Z,41.6
2022-10-28T10:29:15.223Z,39.8
2022-10-28T10:35:18.503Z,30.4
2022-10-28T10:37:19.740Z,30
2022-10-28T10:39:20.894Z,28.4
2022-10-28T10:43:23.310Z,23.5
2022-10-28T10:45:24.911Z,22.5
2022-10-28T10:47:25.973Z,21.8
2022-10-28T10:49:27.555Z,20.4
2022-10-28T10:55:31.098Z,18.4
2022-10-28T10:57:32.505Z,17.7
2022-10-28T10:59:33.644Z,15
2022-10-28T11:01:35.282Z,16
2022-10-28T11:03:36.342Z,15.9
2022-10-28T11:05:38.433Z,13.6
2022-10-28T11:11:40.878Z,12.4
2022-10-28T11:13:43.474Z,11.8
2022-10-28T11:15:43.432Z,11.7
2022-10-28T11:17:44.770Z,11.2
2022-10-28T11:19:45.594Z,10.4
2022-10-28T11:21:46.622Z,9.39
2022-10-28T11:23:48.414Z,-28.3
2022-10-28T11:25:49.886Z,-28.9
2022-10-28T11:27:53.787Z,-28.5
2022-10-28T11:28:34.537Z,-28.2
2022-10-28T11:32:40.188Z,-28.6
2022-10-28T11:36:39.159Z,-28.6
2022-10-28T11:38:44.685Z,-28.6
2022-10-28T11:40:41.228Z,-28.7
2022-10-28T11:42:43.020Z,-28.5
2022-10-28T11:46:45.556Z,-28.6
2022-10-28T12:19:06.759Z,-28.6
2022-10-28T12:21:07.346Z,-28.6
2022-10-28T12:23:08.342Z,-28.6
2022-10-28T12:25:09.354Z,-28.4
2022-10-28T12:31:13.557Z,-28.4
2022-10-28T12:33:15.210Z,-28.3
2022-10-28T12:35:16.161Z,-28.4
2022-10-28T12:37:17.177Z,-28.6
2022-10-28T12:39:18.588Z,-28.4
2022-10-28T12:41:19.890Z,-28.4
2022-10-28T12:47:24.172Z,-28.5
2022-10-28T12:49:25.051Z,-28.5
2022-10-28T12:51:26.428Z,-28.5
2022-10-28T12:53:28.150Z,-28.5
2022-10-28T12:55:29.622Z,-28.4
2022-10-28T12:57:30.794Z,-28.2
2022-10-28T12:59:31.959Z,-28.4
2022-10-28T13:01:33.589Z,-28.3
2022-10-28T13:03:35.185Z,-28.4
2022-10-28T13:07:37.767Z,-28.4
2022-10-28T13:09:39.104Z,-28.5
2022-10-28T13:11:39.783Z,-28.5
2022-10-28T13:13:41.209Z,-28.6
2022-10-28T13:17:43.389Z,-28.5
2022-10-28T13:19:44.976Z,-28.3
2022-10-28T13:21:46.618Z,-28.6
2022-10-28T13:23:47.785Z,-28.3
2022-10-28T13:25:48.694Z,-28.5
2022-10-28T13:27:49.992Z,-28.6
2022-10-28T13:29:51.664Z,-28.4
2022-10-28T13:31:52.534Z,-28.5
2022-10-28T13:33:53.712Z,-28.4
2022-10-28T13:37:56.555Z,-28.4
2022-10-28T13:39:57.823Z,-28.3
2022-10-28T13:41:58.628Z,-28.4
2022-10-28T13:43:59.681Z,-28.2
2022-10-28T13:46:01.324Z,-28.4
2022-10-28T13:48:02.872Z,-28.2
2022-10-28T13:50:03.832Z,-28.5
2022-10-28T13:52:05.108Z,-28.5
2022-10-28T13:54:05.886Z,-28.4
2022-10-28T13:56:07.133Z,-28.3
2022-10-28T14:00:09.244Z,-28
2022-10-28T14:02:32.967Z,-28.3
2022-10-28T14:04:11.702Z,-28.3
2022-10-28T14:06:13.065Z,-28.2
2022-10-28T14:12:16.128Z,-28.4
2022-10-28T14:14:17.383Z,-28.5
2022-10-28T14:16:18.093Z,-28.4
2022-10-28T14:18:42.052Z,-28.4
2022-10-28T14:20:20.769Z,-28.5
2022-10-28T14:22:22.023Z,-28.6
2022-10-28T14:26:24.048Z,-28.3
2022-10-28T14:28:25.558Z,-28.5
2022-10-28T14:30:27.056Z,-28.5
2022-10-28T14:32:28.425Z,-28.4
2022-10-28T14:34:29.617Z,-28.4
2022-10-28T14:36:30.670Z,-28.3
2022-10-28T14:38:32.071Z,-28.5
2022-10-28T14:40:32.989Z,-28.4
2022-10-28T14:42:34.048Z,-28.4
2022-10-28T14:44:35.303Z,-28.8
2022-10-28T14:46:36.959Z,-28.4
2022-10-28T14:48:38.161Z,-28.8
2022-10-28T14:52:41.278Z,-28.4
2022-10-28T14:54:42.219Z,-28.8
2022-10-28T14:58:44.898Z,-28.5
2022-10-28T15:00:46.398Z,-28.5
2022-10-28T15:02:47.913Z,-28.5
2022-10-28T15:04:49.284Z,-28.3
2022-10-28T15:08:51.898Z,-28.6
2022-10-28T15:10:53.282Z,-28.6
2022-10-28T15:12:54.731Z,-28.6
2022-10-28T15:14:55.270Z,-28.8
2022-10-28T15:16:56.939Z,-28.5
2022-10-28T15:18:58.738Z,-28.4
2022-10-28T15:21:00.190Z,-28.7
2022-10-28T15:23:01.639Z,-28.5
2022-10-28T15:25:02.682Z,-28.5
2022-10-28T15:27:04.455Z,-28.4
2022-10-28T15:29:05.927Z,-28.5
2022-10-28T15:31:06.769Z,-28.4
2022-10-28T15:33:07.802Z,-28.7
2022-10-28T15:37:10.685Z,-28.4
2022-10-28T15:41:13.765Z,-28.6
2022-10-28T15:43:14.739Z,-28.5
2022-10-28T15:45:16.407Z,-28.7
2022-10-28T15:47:17.295Z,-28.6
2022-10-28T15:53:21.450Z,-28.7
2022-10-28T15:55:23.882Z,-28.8
2022-10-28T15:57:23.656Z,-28.9
2022-10-28T15:59:24.541Z,-28.7
2022-10-28T16:01:26.025Z,-28.8
2022-10-28T16:03:27.720Z,-28.7
2022-10-28T16:05:28.904Z,-28.9
2022-10-28T16:07:30.182Z,-28.8
2022-10-28T16:09:31.608Z,-28.8
2022-10-28T16:11:33.155Z,-28.7
2022-10-28T16:13:34.549Z,-28.5
2022-10-28T16:15:36.226Z,-28.6
2022-10-28T16:17:37.468Z,-28.6
2022-10-28T16:19:38.959Z,-28.5
2022-10-28T16:21:40.591Z,-28.6
2022-10-28T16:23:41.790Z,-28.6
2022-10-28T16:25:43.217Z,-28.6
2022-10-28T16:29:46.224Z,-28.7
2022-10-28T16:31:47.479Z,-28.6
2022-10-28T16:33:48.626Z,-28.4
2022-10-28T16:35:50.354Z,-28.6
2022-10-28T16:37:55.034Z,-28.4
2022-10-28T16:39:53.284Z,-28.4
2022-10-28T16:41:54.299Z,-28.2
2022-10-28T16:43:56.106Z,-28.6
2022-10-28T16:45:57.439Z,-28.7
2022-10-28T16:52:01.789Z,-28.6
2022-10-28T16:54:03.570Z,-28.7
2022-10-28T16:56:06.621Z,-28.5
2022-10-28T16:58:05.938Z,-28.7
2022-10-28T17:00:07.439Z,-28.2
2022-10-28T17:02:08.731Z,-28.5
2022-10-28T17:04:10.027Z,-28.5
2022-10-28T17:06:11.510Z,-28.5
2022-10-28T17:08:12.670Z,-28.2
2022-10-28T17:10:13.901Z,-28.4
2022-10-28T17:12:15.289Z,-28.7
2022-10-28T17:16:17.599Z,-28.5
2022-10-28T17:18:19.013Z,-28.5
2022-10-28T17:22:21.872Z,-28.6
2022-10-28T17:24:23.580Z,-28.3
2022-10-28T17:26:24.639Z,-28.4
2022-10-28T17:28:26.181Z,-28.5
2022-10-28T17:32:28.546Z,-28.4
2022-10-28T17:34:30.323Z,-28.6
2022-10-28T17:36:31.963Z,-28.5
2022-10-28T17:38:33.657Z,-28.3
2022-10-28T17:42:36.049Z,-28.3
2022-10-28T17:44:37.133Z,-28.3
2022-10-28T17:46:38.417Z,-28.3
2022-10-28T17:48:39.959Z,-28.6
2022-10-28T17:50:41.071Z,-28.4
2022-10-28T17:52:42.324Z,-28.6
2022-10-28T17:54:43.755Z,-28.3
2022-10-28T17:56:45.120Z,-28.1
2022-10-28T18:00:48.492Z,-28.3
2022-10-28T18:04:51.202Z,-28.3
2022-10-28T18:06:52.240Z,-27.9
2022-10-28T18:08:53.953Z,-28.4
2022-10-28T18:10:55.182Z,-28.4
2022-10-28T18:13:40.025Z,-28.2
2022-10-28T18:15:41.560Z,-28.4
2022-10-28T18:17:43.061Z,-28.7
2022-10-28T18:19:44.098Z,-28.2
2022-10-28T18:21:45.130Z,-28.2
2022-10-28T18:23:46.446Z,-28.4
2022-10-28T18:25:47.666Z,-28.5
2022-10-28T18:27:48.946Z,-28.3
2022-10-28T18:29:50.382Z,-28.4
2022-10-28T18:31:51.594Z,-28.4
2022-10-28T18:33:53.137Z,-28.2
2022-10-28T18:35:54.116Z,-28.2
2022-10-28T18:37:55.242Z,-28.4
2022-10-28T18:39:56.595Z,-28.2
2022-10-28T18:41:57.585Z,-28.3
2022-10-28T18:43:58.523Z,-28.2
2022-10-28T18:45:59.627Z,-28.3
2022-10-28T18:48:00.577Z,-28.2
2022-10-28T18:54:04.177Z,-28.2
2022-10-28T18:56:05.392Z,-28.3
2022-10-28T18:58:07.004Z,-28.2
2022-10-28T19:00:19.540Z,-28.4
2022-10-28T19:02:09.770Z,-28.5
2022-10-28T19:04:11.155Z,-28.3
2022-10-28T19:06:12.667Z,-28.2
2022-10-28T19:08:13.840Z,-28.3
2022-10-28T19:10:15.563Z,-28.5
2022-10-28T19:12:17.226Z,-28.2
2022-10-28T19:14:18.693Z,-28.3
2022-10-28T19:18:21.927Z,-28.3
2022-10-28T19:20:23.241Z,-28.3
2022-10-28T19:22:24.384Z,-28.4
2022-10-28T19:24:25.935Z,-28.3
2022-10-28T19:26:27.379Z,-28.2
2022-10-28T19:28:28.755Z,-28.5
2022-10-28T19:30:30.445Z,-28.3
2022-10-28T19:32:32.227Z,-28.2
2022-10-28T19:36:34.885Z,-28.2
2022-10-28T19:40:37.645Z,-28.5
2022-10-28T19:42:38.733Z,-28.3
2022-10-28T19:44:39.661Z,-28.2
2022-10-28T19:46:40.703Z,-28.4
2022-10-28T19:52:44.144Z,-28.2
2022-10-28T19:54:45.796Z,-28.5
2022-10-28T19:56:47.335Z,-28.1
2022-10-28T19:58:48.780Z,-28.4
2022-10-28T20:00:49.893Z,-28.4
2022-10-28T20:02:51.083Z,-28.4
2022-10-28T20:04:52.018Z,-27.9
2022-10-28T20:06:53.846Z,-28.3
2022-10-28T20:08:55.300Z,-28.3
2022-10-28T20:10:56.428Z,-28.3
2022-10-28T20:12:58.259Z,-27.9
2022-10-28T20:14:59.707Z,-28.4
2022-10-28T20:17:05.486Z,-28.5
2022-10-28T20:19:02.084Z,-28
2022-10-28T20:21:03.784Z,-28.2
2022-10-28T20:23:04.738Z,-28.5
2022-10-28T20:25:05.568Z,-27.9
2022-10-28T20:29:08.837Z,-28.3
2022-10-28T20:31:09.774Z,-28.3
2022-10-28T20:33:10.797Z,-28.2
2022-10-28T20:35:12.067Z,-28.4
2022-10-28T20:39:14.779Z,-28.3
2022-10-28T20:41:15.839Z,-27.9
2022-10-28T20:43:17.312Z,-27.9
2022-10-28T20:45:19.028Z,-28.2
2022-10-28T20:49:21.228Z,-28.2
2022-10-28T20:51:22.966Z,-27.8
2022-10-28T20:53:24.795Z,-28.5
2022-10-28T20:55:25.815Z,-28.3
2022-10-28T20:59:28.654Z,-28.3
2022-10-28T21:01:29.656Z,-28.3
2022-10-28T21:05:31.882Z,-28.3
2022-10-28T21:07:32.976Z,-28.1
2022-10-28T21:11:35.450Z,-28.5
2022-10-28T21:13:37.230Z,-28.4
2022-10-28T21:15:38.714Z,-28.3
2022-10-28T21:17:39.942Z,-28.3
2022-10-28T21:23:43.789Z,-28.2
2022-10-28T21:25:45.475Z,-28.2
2022-10-28T21:27:47.078Z,-28.5
2022-10-28T21:29:48.391Z,-27.9
2022-10-28T21:31:50.064Z,-28.2
2022-10-28T21:33:51.794Z,-28.2
2022-10-28T21:37:54.553Z,-28.3
2022-10-28T21:40:00.035Z,-27.9
2022-10-28T21:41:57.139Z,-28.3
2022-10-28T21:43:58.986Z,-28.2
2022-10-28T21:46:00.246Z,-28.3
2022-10-28T21:48:01.652Z,-28.4
2022-10-28T21:50:03.563Z,-28
2022-10-28T21:52:04.459Z,-28.4
2022-10-28T21:54:05.917Z,-28
2022-10-28T21:56:09.139Z,-28.3
2022-10-28T21:58:08.712Z,-28.3
2022-10-28T22:00:09.666Z,-28.3
2022-10-28T22:06:13.541Z,-28.2
2022-10-28T22:08:14.758Z,-28.1
2022-10-28T22:10:16.547Z,-28.4
2022-10-28T22:12:17.889Z,-28.5
2022-10-28T22:14:19.652Z,-28.2
2022-10-28T22:16:21.141Z,-28
2022-10-28T22:18:22.419Z,-28.2
2022-10-28T22:20:23.494Z,-28.2
2022-10-28T22:22:25.013Z,-28.4
2022-10-28T22:24:26.760Z,-28.4
2022-10-28T22:26:27.844Z,-28.4
2022-10-28T22:28:28.849Z,-28.1
2022-10-28T22:30:30.731Z,-28.4
2022-10-28T22:32:31.690Z,-28
2022-10-28T22:34:33.423Z,-28.3
2022-10-28T22:36:35.138Z,-28.4
2022-10-28T22:38:36.861Z,-28.2
2022-10-28T22:40:38.207Z,-28
2022-10-28T22:42:39.892Z,-28.3
2022-10-28T22:48:43.917Z,-28.3
2022-10-28T22:50:45.387Z,-28
2022-10-28T22:52:47.055Z,-28.2
2022-10-28T22:54:48.771Z,-28.2
2022-10-28T22:56:49.796Z,-28.3
2022-10-28T22:58:51.200Z,-28
2022-10-28T23:02:54.829Z,-28.2
2022-10-28T23:04:56.201Z,-28.3
2022-10-28T23:06:57.574Z,-28.6
2022-10-28T23:08:58.823Z,-28
2022-10-28T23:10:59.765Z,-28.3
2022-10-28T23:13:01.571Z,-28.3
2022-10-28T23:15:02.746Z,-28.1
2022-10-28T23:17:04.216Z,-28.3
2022-10-28T23:19:06.010Z,-28.2
2022-10-28T23:21:07.282Z,-28.5
2022-10-28T23:25:10.829Z,-28.2
2022-10-28T23:27:11.906Z,-28.4
2022-10-28T23:29:13.580Z,-28.5
2022-10-28T23:31:14.993Z,-28.4
2022-10-28T23:33:16.857Z,-28.5
2022-10-28T23:35:18.670Z,-28
2022-10-28T23:37:20.227Z,-28.4
2022-10-28T23:39:21.855Z,-28.4
2022-10-28T23:41:22.899Z,-28.3
2022-10-28T23:47:26.555Z,-28.2
2022-10-28T23:49:27.659Z,-27.9
2022-10-28T23:51:29.189Z,-28.4
2022-10-28T23:53:30.598Z,-28.2
2022-10-28T23:55:31.591Z,-28.4
2022-10-28T23:57:32.601Z,-28.5
